Time;durP1;ratioP1;P1;durP2;ratioP2;P2;SDS_P1;SDS_P2;PMS_P1;PMS_P2;Temp;Humidity;BMP_temperature;BMP_pressure;BME280_temperature;BME280_humidity;BME280_pressure;Samples;Min_cycle;Max_cycle;Signal;HPM_P1;HPM_P2
2021/12/25 00:01:49;;;;;;;40.83;19.07;;;;;;;0.53;100.00;60862.16;5072086;28;20496;-74
2021/12/25 00:04:19;;;;;;;50.80;21.57;;;;;;;0.71;100.00;60881.25;5071337;28;20916;-75
2021/12/25 00:06:48;;;;;;;41.57;18.23;;;;;;;-0.20;100.00;60779.81;5071945;28;20450;-73
2021/12/25 00:09:25;;;;;;;31.00;15.73;;;;;;;0.75;100.00;60888.00;5070814;28;20438;-76
2021/12/25 00:11:51;;;;;;;35.90;15.60;;;;;;;0.44;100.00;60855.13;5064492;28;20538;-75
2021/12/25 00:14:19;;;;;;;32.87;14.70;;;;;;;0.79;100.00;60889.72;5069613;28;20500;-75
2021/12/25 00:16:46;;;;;;;24.97;12.10;;;;;;;0.82;100.00;60895.44;5071575;28;20430;-76
2021/12/25 00:19:19;;;;;;;26.33;14.17;;;;;;;0.96;100.00;60909.19;5071795;28;20447;-73
2021/12/25 00:21:53;;;;;;;29.47;13.17;;;;;;;1.08;100.00;60919.41;5070457;28;20832;-72
2021/12/25 00:24:21;;;;;;;30.87;12.27;;;;;;;1.01;100.00;60912.53;5071867;28;20450;-73
2021/12/25 00:26:57;;;;;;;23.37;12.87;;;;;;;-0.44;100.00;60759.94;5071550;28;20541;-75
2021/12/25 00:29:38;;;;;;;28.40;13.37;;;;;;;1.13;100.00;60929.75;5071549;28;20446;-74
2021/12/25 00:32:36;;;;;;;25.13;12.90;;;;;;;-0.43;100.00;60762.97;5071669;28;20462;-74
2021/12/25 00:35:03;;;;;;;28.67;13.40;;;;;;;1.32;100.00;60949.91;5069887;28;20490;-77
2021/12/25 00:37:35;;;;;;;28.10;14.17;;;;;;;1.10;100.00;60927.09;5070258;28;20541;-73
2021/12/25 00:40:07;;;;;;;30.40;14.80;;;;;;;-0.37;100.00;60771.81;5071489;28;20841;-75
2021/12/25 00:42:37;;;;;;;30.03;13.90;;;;;;;1.50;100.00;60967.03;5071464;28;20960;-74
2021/12/25 00:45:11;;;;;;;24.03;13.27;;;;;;;1.56;100.00;60973.38;5071756;28;20968;-74
2021/12/25 00:47:41;;;;;;;25.53;12.43;;;;;;;1.67;100.00;60982.53;5071588;28;20438;-76
2021/12/25 00:50:10;;;;;;;36.53;15.07;;;;;;;1.64;100.00;60988.88;5071360;28;20523;-75
2021/12/25 00:52:40;;;;;;;19.83;11.00;;;;;;;0.47;100.00;60855.81;5071328;28;20519;-74
2021/12/25 00:55:11;;;;;;;22.27;11.10;;;;;;;0.67;100.00;60877.00;5071598;28;20539;-74
2021/12/25 00:57:43;;;;;;;23.77;11.27;;;;;;;2.15;100.00;61035.50;5071417;28;20450;-75
2021/12/25 01:00:14;;;;;;;22.73;11.97;;;;;;;0.39;100.00;60842.31;5071561;28;20442;-75
2021/12/25 01:02:55;;;;;;;24.37;12.37;;;;;;;0.68;100.00;60883.09;5071070;28;20898;-76
2021/12/25 01:05:26;;;;;;;16.30;9.80;;;;;;;2.33;100.00;61051.56;5071606;28;20422;-75
2021/12/25 01:07:58;;;;;;;18.30;9.73;;;;;;;2.45;100.00;61069.34;5071640;28;20488;-74
2021/12/25 01:10:32;;;;;;;30.77;12.53;;;;;;;1.20;100.00;60934.66;5071985;28;20523;-76
2021/12/25 01:13:09;;;;;;;35.13;14.50;;;;;;;2.28;100.00;61046.78;5070120;28;20453;-74
2021/12/25 01:15:48;;;;;;;26.90;11.07;;;;;;;2.12;100.00;61034.81;5072888;28;20505;-74
2021/12/25 01:24:19;;;;;;;18.30;8.83;;;;;;;2.37;100.00;61058.31;5074328;28;20438;-75
2021/12/25 01:27:10;;;;;;;17.93;10.17;;;;;;;2.32;100.00;61056.03;5074549;28;20454;-75
2021/12/25 01:29:50;;;;;;;24.87;10.63;;;;;;;2.15;100.00;61035.50;5074998;28;20450;-73
2021/12/25 01:32:53;;;;;;;16.33;8.90;;;;;;;2.11;100.00;61031.25;5075195;28;20441;-76
2021/12/25 01:38:24;;;;;;;36.10;13.77;;;;;;;2.15;100.00;61032.97;5070917;28;20455;-75
2021/12/25 01:41:04;;;;;;;46.07;17.43;;;;;;;1.96;100.00;61015.31;5074539;28;20438;-73
2021/12/25 01:49:05;;;;;;;32.40;13.63;;;;;;;1.93;100.00;61014.09;5077972;28;20488;-72
2021/12/25 01:51:33;;;;;;;30.53;12.93;;;;;;;1.58;100.00;60972.47;5074620;28;20443;-76
2021/12/25 01:54:01;;;;;;;35.73;14.67;;;;;;;1.83;100.00;61004.03;5074470;28;20504;-74
2021/12/25 01:56:32;;;;;;;27.97;12.93;;;;;;;1.78;100.00;60993.69;5074352;28;20478;-74
2021/12/25 01:59:01;;;;;;;29.27;13.27;;;;;;;1.78;100.00;60998.72;5073496;28;20827;-75
2021/12/25 02:01:29;;;;;;;25.17;12.60;;;;;;;1.69;100.00;60989.16;5074281;28;20451;-73
2021/12/25 02:04:01;;;;;;;23.43;10.60;;;;;;;1.69;100.00;60984.16;5074694;28;20489;-76
2021/12/25 02:06:28;;;;;;;21.60;11.20;;;;;;;1.58;100.00;60974.97;5074480;28;20519;-76
2021/12/25 02:08:56;;;;;;;19.00;10.03;;;;;;;1.58;100.00;60972.47;5074613;28;20488;-75
2021/12/25 02:11:25;;;;;;;21.20;10.13;;;;;;;1.49;100.00;60962.94;5074405;28;20980;-76
2021/12/25 02:13:53;;;;;;;19.97;10.63;;;;;;;1.47;100.00;60965.81;5073999;28;20461;-74
2021/12/25 02:16:26;;;;;;;23.90;10.80;;;;;;;1.47;100.00;60960.81;5074393;28;20494;-74
2021/12/25 02:19:00;;;;;;;21.70;10.87;;;;;;;1.47;100.00;60961.31;5074629;28;20438;-73
2021/12/25 02:21:35;;;;;;;20.90;11.03;;;;;;;1.44;100.00;60960.13;5074407;28;20507;-74
2021/12/25 02:24:04;;;;;;;21.63;10.10;;;;;;;1.42;100.00;60955.50;5074168;28;20458;-73
2021/12/25 02:26:32;;;;;;;41.67;14.80;;;;;;;1.45;100.00;60963.69;5073620;28;21040;-74
2021/12/25 02:29:01;;;;;;;43.03;16.13;;;;;;;0.61;100.00;60875.66;5074331;28;20435;-77
2021/12/25 02:31:30;;;;;;;40.73;15.77;;;;;;;1.51;100.00;60965.03;5074021;28;20447;-74
2021/12/25 02:33:58;;;;;;;74.20;22.13;;;;;;;1.40;100.00;60951.41;5073630;28;20573;-75
2021/12/25 02:36:26;;;;;;;23.40;11.30;;;;;;;1.51;100.00;60977.59;5073614;28;20565;-73
2021/12/25 02:38:57;;;;;;;40.50;14.87;;;;;;;1.49;100.00;60967.94;5073363;28;20508;-75
2021/12/25 02:41:24;;;;;;;29.20;12.17;;;;;;;0.19;100.00;60826.13;5073492;28;20492;-75
2021/12/25 02:43:52;;;;;;;48.87;17.67;;;;;;;1.61;100.00;60980.69;5073504;28;20449;-75
2021/12/25 02:46:22;;;;;;;37.57;16.07;;;;;;;1.58;100.00;60974.97;5073312;28;20455;-72
2021/12/25 02:48:52;;;;;;;17.53;9.43;;;;;;;1.67;100.00;60982.03;5073541;28;20815;-73
2021/12/25 02:51:23;;;;;;;21.57;10.53;;;;;;;1.62;100.00;60981.72;5073659;28;20496;-75
2021/12/25 02:53:51;;;;;;;18.97;9.47;;;;;;;-0.30;100.00;60769.75;5073155;28;21022;-74
2021/12/25 02:56:22;;;;;;;21.17;11.20;;;;;;;1.81;100.00;60996.88;5073256;28;20535;-76
2021/12/25 02:58:49;;;;;;;18.63;10.47;;;;;;;0.05;100.00;60810.75;5073335;28;20435;-75
2021/12/25 03:01:18;;;;;;;17.93;9.13;;;;;;;1.79;100.00;60994.75;5073318;28;20447;-75
2021/12/25 03:03:45;;;;;;;17.83;9.10;;;;;;;0.74;100.00;60889.44;5073217;28;20458;-76
2021/12/25 03:06:13;;;;;;;15.87;9.17;;;;;;;1.90;100.00;61000.88;5073761;28;20442;-73
2021/12/25 03:08:46;;;;;;;16.60;9.40;;;;;;;1.78;100.00;60996.19;5073302;28;20454;-74
2021/12/25 03:11:14;;;;;;;15.77;9.10;;;;;;;1.74;100.00;60989.44;5073043;28;20454;-75
2021/12/25 03:13:56;;;;;;;18.83;8.63;;;;;;;1.86;100.00;61004.16;5072530;28;20447;-73
2021/12/25 03:16:24;;;;;;;18.07;10.27;;;;;;;1.92;100.00;61013.03;5071834;28;20486;-73
2021/12/25 03:18:54;;;;;;;19.20;9.50;;;;;;;1.88;100.00;61003.78;5072641;28;20512;-75
2021/12/25 03:21:23;;;;;;;162.17;45.13;;;;;;;1.96;100.00;61017.81;5072668;28;20454;-74
2021/12/25 03:23:52;;;;;;;262.43;69.27;;;;;;;1.96;100.00;61015.31;5072594;28;20470;-75
2021/12/25 03:26:20;;;;;;;128.83;38.87;;;;;;;0.70;100.00;60882.69;5072900;28;20876;-73
2021/12/25 03:28:51;;;;;;;42.30;16.37;;;;;;;2.01;100.00;61020.63;5072556;28;20434;-75
2021/12/25 03:31:21;;;;;;;25.90;12.20;;;;;;;1.90;100.00;61008.94;5072983;28;20454;-74
2021/12/25 03:33:54;;;;;;;19.30;10.50;;;;;;;0.78;100.00;60888.69;5072206;28;20536;-74
2021/12/25 03:36:28;;;;;;;26.47;11.03;;;;;;;1.82;100.00;60997.94;5072662;28;20478;-75
2021/12/25 03:38:56;;;;;;;26.23;12.90;;;;;;;1.87;100.00;61002.72;5071344;28;20541;-77
2021/12/25 03:41:32;;;;;;;33.70;14.40;;;;;;;1.83;100.00;61001.53;5072386;28;20469;-75
2021/12/25 03:44:01;;;;;;;29.83;13.07;;;;;;;1.88;100.00;61009.31;5072157;28;20446;-74
2021/12/25 03:46:29;;;;;;;35.93;13.63;;;;;;;1.90;100.00;61006.44;5072284;28;20771;-73
2021/12/25 04:00:04;;;;;;;43.27;16.17;;;;;;;2.12;100.00;61031.75;5074910;28;20562;-72
2021/12/25 04:02:42;;;;;;;33.47;13.07;;;;;;;0.87;100.00;60899.66;5075218;28;20960;-76
2021/12/25 04:05:16;;;;;;;40.87;14.50;;;;;;;2.04;100.00;61021.28;5072254;28;20478;-75
2021/12/25 04:10:36;;;;;;;27.83;13.77;;;;;;;2.05;100.00;61022.38;5065114;28;20461;-74
2021/12/25 04:13:07;;;;;;;31.40;13.63;;;;;;;2.09;100.00;61026.06;5071891;28;20445;-74
2021/12/25 04:15:36;;;;;;;26.13;12.87;;;;;;;2.15;100.00;61038.00;5071771;28;20511;-74
2021/12/25 04:18:03;;;;;;;29.03;13.20;;;;;;;2.13;100.00;61035.88;5071996;28;20868;-75
2021/12/25 04:20:31;;;;;;;18.97;9.57;;;;;;;2.02;100.00;61021.16;5071394;28;20447;-74
2021/12/25 04:23:02;;;;;;;40.53;17.13;;;;;;;1.68;100.00;60988.63;5071565;28;20443;-73
2021/12/25 04:25:33;;;;;;;383.87;101.37;;;;;;;2.08;100.00;61025.53;5072031;28;20446;-75
2021/12/25 04:28:07;;;;;;;44.10;18.23;;;;;;;2.09;100.00;61031.63;5071830;28;20470;-73
2021/12/25 04:30:47;;;;;;;30.00;12.97;;;;;;;2.14;100.00;61034.41;5071986;28;20471;-74
2021/12/25 05:03:57;;;;;;;84.77;23.33;;;;;;;2.09;100.00;61029.13;5075632;28;20511;-73
2021/12/25 05:06:25;;;;;;;79.57;23.70;;;;;;;2.03;100.00;61020.25;5075208;28;20454;-76
2021/12/25 05:08:54;;;;;;;99.37;30.93;;;;;;;1.91;100.00;61012.00;5074944;28;20489;-75
2021/12/25 05:11:22;;;;;;;29.33;13.53;;;;;;;1.93;100.00;61012.13;5075233;28;20439;-74
2021/12/25 05:13:50;;;;;;;47.77;17.77;;;;;;;1.88;100.00;61004.31;5075281;28;20450;-73
2021/12/25 05:16:19;;;;;;;24.70;12.67;;;;;;;2.22;100.00;61034.84;5075548;28;21034;-75
2021/12/25 05:18:50;;;;;;;21.40;11.20;;;;;;;2.26;100.00;61049.69;5075190;28;20446;-74
2021/12/25 05:21:18;;;;;;;21.17;11.30;;;;;;;2.10;100.00;61030.16;5075257;28;20449;-75
2021/12/25 05:23:45;;;;;;;19.67;10.90;;;;;;;2.21;100.00;61044.38;5075400;28;20584;-74
2021/12/25 05:26:14;;;;;;;22.53;10.87;;;;;;;2.23;100.00;61041.47;5075055;28;20491;-72
2021/12/25 05:28:45;;;;;;;18.63;10.23;;;;;;;2.02;100.00;61021.16;5074885;28;20525;-74
2021/12/25 05:31:16;;;;;;;30.57;14.77;;;;;;;2.37;100.00;61061.38;5075005;28;20537;-74
2021/12/25 05:33:44;;;;;;;24.53;11.50;;;;;;;2.22;100.00;61039.88;5074829;28;20442;-75
2021/12/25 05:36:12;;;;;;;17.57;9.37;;;;;;;2.10;100.00;61032.69;5074733;28;20485;-74
2021/12/25 05:38:39;;;;;;;16.03;9.07;;;;;;;2.75;100.00;61100.66;5074571;28;20446;-73
2021/12/25 05:41:09;;;;;;;30.93;15.80;;;;;;;2.80;100.00;61100.97;5074678;28;20537;-75
2021/12/25 05:43:37;;;;;;;26.17;11.67;;;;;;;2.78;100.00;61101.34;5075335;28;20434;-76
2021/12/25 05:46:04;;;;;;;28.40;11.90;;;;;;;2.82;100.00;61108.13;5074644;28;20454;-75
2021/12/25 05:48:35;;;;;;;22.50;10.83;;;;;;;1.41;100.00;60961.97;5074411;28;20446;-75
2021/12/25 05:51:05;;;;;;;17.80;9.67;;;;;;;2.57;100.00;61079.56;5074629;28;20470;-75
2021/12/25 05:53:34;;;;;;;21.10;11.03;;;;;;;2.61;100.00;61080.75;5074523;28;20495;-74
2021/12/25 05:56:02;;;;;;;52.27;18.93;;;;;;;2.54;100.00;61079.41;5074219;28;20442;-74
2021/12/25 05:58:29;;;;;;;110.33;31.90;;;;;;;2.54;100.00;61078.88;5075823;28;20476;-75
2021/12/25 06:00:58;;;;;;;568.20;144.50;;;;;;;2.53;100.00;61075.84;5082431;28;20465;-74
2021/12/25 06:03:25;;;;;;;249.80;56.30;;;;;;;0.96;100.00;60907.22;5076329;28;20903;-74
2021/12/25 06:05:53;;;;;;;62.13;20.43;;;;;;;2.66;100.00;61091.63;5073433;28;20474;-76
2021/12/25 06:08:21;;;;;;;26.83;11.23;;;;;;;1.88;100.00;61006.28;5074433;28;20529;-75
2021/12/25 06:10:51;;;;;;;20.87;10.77;;;;;;;2.98;100.00;61122.59;5074565;28;20508;-74
2021/12/25 06:13:22;;;;;;;32.90;13.47;;;;;;;2.97;100.00;61124.03;5074110;28;20884;-74
2021/12/25 06:15:51;;;;;;;37.83;16.40;;;;;;;2.79;100.00;61104.91;5074410;28;20426;-74
2021/12/25 06:18:19;;;;;;;27.97;14.83;;;;;;;2.80;100.00;61106.00;5074306;28;20497;-73
2021/12/25 06:20:46;;;;;;;27.80;14.73;;;;;;;2.81;100.00;61107.59;5074162;28;20860;-74
2021/12/25 06:23:13;;;;;;;17.87;9.60;;;;;;;1.54;100.00;60968.22;5072741;28;20447;-74
2021/12/25 06:25:40;;;;;;;16.57;9.03;;;;;;;2.97;100.00;61111.47;5074150;28;20447;-76
2021/12/25 06:28:09;;;;;;;16.27;9.87;;;;;;;3.04;100.00;61128.97;5073160;28;20451;-74
2021/12/25 06:30:38;;;;;;;18.17;9.60;;;;;;;3.07;100.00;61130.19;5073784;28;20879;-73
2021/12/25 06:33:07;;;;;;;13.13;8.43;;;;;;;2.48;100.00;61073.03;5073850;28;20462;-74
2021/12/25 06:35:34;;;;;;;19.97;7.30;;;;;;;3.46;100.00;61176.16;5073288;28;20858;-76
2021/12/25 06:38:02;;;;;;;12.43;7.53;;;;;;;2.21;100.00;61049.41;5073327;28;20569;-74
2021/12/25 06:40:29;;;;;;;13.20;7.60;;;;;;;3.13;100.00;61128.47;5072955;28;20894;-75
2021/12/25 06:42:58;;;;;;;14.70;8.00;;;;;;;3.74;100.00;61205.94;5073627;28;20446;-73
2021/12/25 06:45:27;;;;;;;13.87;8.20;;;;;;;3.84;100.00;61211.53;5073721;28;20481;-75
2021/12/25 06:47:54;;;;;;;16.17;8.53;;;;;;;3.86;100.00;61218.69;5073370;28;20442;-76
2021/12/25 06:50:23;;;;;;;16.60;7.80;;;;;;;3.82;100.00;61208.88;5073387;28;20500;-75
2021/12/25 06:52:49;;;;;;;17.37;9.47;;;;;;;3.71;100.00;61197.69;5073169;28;20500;-74
2021/12/25 06:55:17;;;;;;;15.43;8.70;;;;;;;3.72;100.00;61201.28;5073538;28;20450;-75
2021/12/25 06:57:51;;;;;;;18.70;9.83;;;;;;;3.70;100.00;61196.09;5072163;28;20500;-74
2021/12/25 07:00:18;;;;;;;19.83;11.23;;;;;;;3.62;100.00;61193.16;5073512;28;20434;-74
2021/12/25 07:02:47;;;;;;;35.00;15.30;;;;;;;3.65;100.00;61201.38;5073344;28;20476;-75
2021/12/25 07:05:15;;;;;;;30.20;14.67;;;;;;;3.72;100.00;61201.28;5072943;28;20443;-76
2021/12/25 07:07:43;;;;;;;33.43;14.67;;;;;;;3.63;100.00;61194.22;5072972;28;20496;-75
2021/12/25 07:10:11;;;;;;;24.80;11.87;;;;;;;3.91;100.00;61221.50;5072893;28;21014;-73
2021/12/25 07:12:44;;;;;;;33.93;14.03;;;;;;;3.95;100.00;61223.22;5072895;28;20450;-75
2021/12/25 07:15:12;;;;;;;28.03;13.27;;;;;;;4.46;100.00;61282.00;5072893;28;20838;-75
2021/12/25 07:17:39;;;;;;;27.53;13.63;;;;;;;4.51;100.00;61281.75;5072410;28;20930;-74
2021/12/25 07:20:09;;;;;;;29.83;14.27;;;;;;;5.40;100.00;61381.06;5071471;28;20526;-75
2021/12/25 07:22:51;;;;;;;29.60;13.30;;;;;;;5.74;100.00;61417.81;5072456;28;20438;-74
2021/12/25 07:25:21;;;;;;;35.33;16.97;;;;;;;5.60;100.00;61402.91;5072802;28;20454;-77
2021/12/25 07:27:47;;;;;;;39.17;17.37;;;;;;;5.49;100.00;61388.13;5072310;28;20460;-74
2021/12/25 07:30:16;;;;;;;31.57;14.03;;;;;;;5.43;100.00;61382.28;5071189;28;20454;-76
2021/12/25 07:32:43;;;;;;;19.23;11.20;;;;;;;5.33;100.00;61371.63;5072330;28;20499;-75
2021/12/25 07:35:17;;;;;;;33.30;15.03;;;;;;;5.36;100.00;61369.75;5072406;28;20904;-75
2021/12/25 07:38:18;;;;;;;28.57;12.93;;;;;;;5.45;100.00;61384.41;5072761;28;20474;-75
2021/12/25 07:40:49;;;;;;;19.30;10.83;;;;;;;5.82;100.00;61426.34;5072074;28;20528;-74
2021/12/25 07:43:17;;;;;;;28.23;12.20;;;;;;;6.17;100.00;61460.63;5072760;28;20468;-74
2021/12/25 07:45:46;;;;;;;20.87;11.43;;;;;;;6.87;100.00;61532.25;5071752;28;20466;-75
2021/12/25 07:48:13;;;;;;;19.23;10.77;;;;;;;6.98;100.00;61543.47;5072236;28;20828;-73
2021/12/25 07:50:42;;;;;;;35.70;19.17;;;;;;;6.91;100.00;61539.03;5072128;28;20954;-76
2021/12/25 07:53:12;;;;;;;44.20;21.90;;;;;;;6.74;100.00;61521.44;5071757;28;20443;-74
2021/12/25 07:55:39;;;;;;;58.90;31.03;;;;;;;6.62;100.00;61508.13;5073119;28;20451;-74
2021/12/25 07:58:11;;;;;;;89.37;38.43;;;;;;;6.05;100.00;61447.31;5072351;28;20494;-75
2021/12/25 08:00:40;;;;;;;65.50;36.47;;;;;;;6.08;100.00;61453.03;5072119;28;20446;-76
2021/12/25 08:03:08;;;;;;;68.50;37.13;;;;;;;5.96;100.00;61438.78;5076562;28;20451;-74
2021/12/25 08:05:36;;;;;;;60.07;32.60;;;;;;;5.69;100.00;61409.97;5076841;28;20972;-74
2021/12/25 08:08:07;;;;;;;51.27;27.80;;;;;;;4.46;100.00;61276.44;5071451;28;20446;-78
2021/12/25 08:10:34;;;;;;;53.30;29.50;;;;;;;3.85;100.00;61214.56;5072198;28;20447;-74
2021/12/25 08:13:02;;;;;;;48.23;27.27;;;;;;;5.49;100.00;61385.59;5072089;28;20443;-75
2021/12/25 08:15:32;;;;;;;55.00;26.83;;;;;;;5.51;100.00;61393.31;5071874;28;20541;-75
2021/12/25 08:18:01;;;;;;;49.57;27.33;;;;;;;5.52;100.00;61391.84;5071564;28;20497;-74
2021/12/25 08:20:29;;;;;;;44.10;24.67;;;;;;;5.73;100.00;61411.72;5071403;28;20550;-75
2021/12/25 08:22:57;;;;;;;49.37;25.73;;;;;;;6.01;100.00;61441.06;5071494;28;20439;-77
2021/12/25 08:25:25;;;;;;;45.57;22.37;;;;;;;6.24;100.00;61465.03;5071252;28;20933;-75
2021/12/25 08:27:53;;;;;;;37.53;21.07;;;;;;;5.28;100.00;61363.75;5071843;28;20508;-75
2021/12/25 08:30:26;;;;;;;31.20;15.97;;;;;;;5.94;100.00;61431.59;5071666;28;20450;-76
2021/12/25 08:32:57;;;;;;;22.67;12.83;;;;;;;6.82;100.00;61524.38;5072029;28;20808;-77
2021/12/25 08:35:26;;;;;;;14.27;8.70;;;;;;;6.94;100.00;61544.78;5071874;28;20561;-75
2021/12/25 08:37:54;;;;;;;14.97;8.33;;;;;;;6.96;100.00;61546.38;5071399;28;20485;-74
2021/12/25 08:40:24;;;;;;;14.63;7.97;;;;;;;7.06;100.00;61555.06;5071443;28;20988;-76
2021/12/25 08:42:59;;;;;;;13.67;8.27;;;;;;;7.05;100.00;61554.00;5071855;28;20488;-73
2021/12/25 08:48:20;;;;;;;14.97;8.73;;;;;;;7.34;100.00;61584.41;5060777;28;20496;-77
2021/12/25 08:50:51;;;;;;;20.13;9.63;;;;;;;7.42;100.00;61590.97;5071732;28;20435;-76
2021/12/25 08:53:22;;;;;;;14.37;8.73;;;;;;;7.46;100.00;61594.69;5071482;28;20430;-76
2021/12/25 08:55:50;;;;;;;16.07;8.40;;;;;;;6.28;100.00;61474.38;5071376;28;20488;-75
2021/12/25 08:58:19;;;;;;;15.43;8.57;;;;;;;7.61;100.00;61613.25;5070235;28;20492;-76
2021/12/25 09:00:47;;;;;;;14.87;7.43;;;;;;;7.42;100.00;61588.44;5071104;28;20804;-76
2021/12/25 09:03:14;;;;;;;12.37;7.40;;;;;;;7.64;100.00;61617.00;5071422;28;20446;-74
2021/12/25 09:05:41;;;;;;;11.37;6.70;;;;;;;7.80;100.00;61633.00;5070918;28;20849;-73
2021/12/25 09:08:08;;;;;;;12.13;7.10;;;;;;;6.81;100.00;61525.84;5071252;28;20831;-75
2021/12/25 09:10:36;;;;;;;17.93;9.00;;;;;;;8.27;100.00;61683.25;5071102;28;20515;-74
2021/12/25 09:13:06;;;;;;;13.67;6.90;;;;;;;8.43;100.00;61697.81;5071305;28;20522;-75
2021/12/25 09:15:37;;;;;;;15.23;7.23;;;;;;;8.57;100.00;61707.72;5071180;28;20442;-75
2021/12/25 09:18:04;;;;;;;15.23;7.33;;;;;;;8.61;100.00;61722.13;5071175;28;21001;-76
2021/12/25 09:20:31;;;;;;;9.60;6.50;;;;;;;8.68;100.00;61729.06;5070655;28;20455;-77
2021/12/25 09:22:58;;;;;;;10.87;6.70;;;;;;;8.84;100.00;61741.63;5071162;28;20477;-75
2021/12/25 09:25:25;;;;;;;12.03;6.67;;;;;;;8.55;100.00;61715.72;5071311;28;20541;-74
2021/12/25 09:27:52;;;;;;;16.23;7.27;;;;;;;8.99;100.00;61759.69;5071207;28;20446;-75
2021/12/25 09:30:21;;;;;;;11.17;6.70;;;;;;;7.93;100.00;61652.50;5071268;28;20431;-75
2021/12/25 09:32:49;;;;;;;11.63;6.90;;;;;;;9.21;100.00;61783.75;5071464;28;20554;-74
2021/12/25 09:35:17;;;;;;;16.50;6.60;;;;;;;9.38;100.00;61800.88;5071237;28;20918;-76
2021/12/25 09:37:44;;;;;;;12.97;7.17;;;;;;;9.44;100.00;61807.31;5074145;28;20490;-77
2021/12/25 09:40:13;;;;;;;9.43;6.27;;;;;;;9.49;100.00;61815.19;5074762;28;20216;-75
2021/12/25 09:42:42;;;;;;;13.70;8.07;;;;;;;9.55;100.00;61821.59;5074809;28;20446;-74
2021/12/25 09:45:10;;;;;;;16.77;7.20;;;;;;;9.11;100.00;61777.59;5074603;28;20450;-77
2021/12/25 09:47:37;;;;;;;12.33;7.30;;;;;;;9.68;100.00;61835.53;5074427;28;20447;-77
2021/12/25 09:50:07;;;;;;;12.87;8.00;;;;;;;9.28;100.00;61790.69;5072988;28;20450;-75
2021/12/25 09:52:35;;;;;;;15.90;9.20;;;;;;;9.13;100.00;61780.28;5073297;28;20458;-75
2021/12/25 09:55:05;;;;;;;20.80;10.13;;;;;;;9.00;100.00;61763.84;5074401;28;20446;-75
2021/12/25 09:57:34;;;;;;;17.47;9.50;;;;;;;8.87;100.00;61747.41;5074462;28;20478;-75
2021/12/25 10:00:07;;;;;;;18.60;9.67;;;;;;;7.50;100.00;61604.03;5074206;28;20492;-75
2021/12/25 10:02:43;;;;;;;13.37;8.23;;;;;;;9.29;100.00;61792.31;5074817;28;20435;-74
2021/12/25 10:05:13;;;;;;;14.77;7.50;;;;;;;9.48;100.00;61814.13;5080166;28;20447;-76
2021/12/25 10:07:41;;;;;;;12.97;7.53;;;;;;;9.73;100.00;61840.88;5074660;28;20446;-74
2021/12/25 10:10:13;;;;;;;12.83;7.47;;;;;;;8.75;100.00;61737.09;5074211;28;20529;-76
2021/12/25 10:12:43;;;;;;;13.50;7.50;;;;;;;9.69;100.00;61836.59;5074095;28;20511;-76
2021/12/25 10:15:12;;;;;;;15.23;8.20;;;;;;;9.93;100.00;61857.72;5074107;28;20438;-73
2021/12/25 10:17:46;;;;;;;13.73;8.27;;;;;;;9.96;100.00;61863.47;5074230;28;20551;-74
2021/12/25 10:20:20;;;;;;;15.83;8.77;;;;;;;9.57;100.00;61818.66;5073976;28;20525;-71
2021/12/25 10:23:06;;;;;;;13.60;8.43;;;;;;;9.97;100.00;61867.09;5072725;28;20984;-74
2021/12/25 10:25:43;;;;;;;15.83;7.67;;;;;;;8.23;100.00;61676.94;5073886;28;20204;-74
2021/12/25 10:28:12;;;;;;;13.07;7.80;;;;;;;9.93;100.00;61862.28;5073550;28;20238;-75
2021/12/25 10:30:48;;;;;;;13.77;7.97;;;;;;;9.00;100.00;61768.91;5073636;28;20679;-74
2021/12/25 10:33:30;;;;;;;12.80;7.37;;;;;;;10.23;100.00;61889.34;5073704;28;20639;-75
2021/12/25 10:36:03;;;;;;;14.73;8.33;;;;;;;10.39;100.00;61911.00;5073535;28;20455;-75
2021/12/25 10:38:31;;;;;;;14.97;8.33;;;;;;;10.63;100.00;61929.09;5073400;28;20489;-75
2021/12/25 10:41:19;;;;;;;14.40;8.30;;;;;;;11.33;100.00;62006.66;5073451;28;20212;-76
2021/12/25 10:43:53;;;;;;;20.17;8.40;;;;;;;11.76;100.00;62054.78;5073467;28;20239;-76
2021/12/25 10:46:23;;;;;;;14.43;7.77;;;;;;;12.56;100.00;62140.63;5073657;28;20299;-75
2021/12/25 10:48:51;;;;;;;15.27;7.70;;;;;;;13.47;100.00;62235.28;5073363;28;20279;-75
2021/12/25 10:51:40;;;;;;;16.37;7.60;;;;;;;14.34;100.00;62328.25;5073452;28;20236;-75
2021/12/25 10:54:12;;;;;;;15.37;7.57;;;;;;;14.58;100.00;62358.13;5072042;28;20206;-75
2021/12/25 10:56:41;;;;;;;12.33;7.80;;;;;;;14.17;100.00;62312.53;5073191;28;20196;-77
2021/12/25 10:59:11;;;;;;;12.57;8.30;;;;;;;14.17;100.00;62315.09;5073140;28;20262;-74
2021/12/25 11:01:40;;;;;;;16.63;7.73;;;;;;;14.56;100.00;62355.97;5073058;28;20200;-77
2021/12/25 11:04:26;;;;;;;15.57;8.17;;;;;;;13.69;100.00;62260.94;5072738;28;20287;-75
2021/12/25 11:06:54;;;;;;;11.73;6.63;;;;;;;15.05;100.00;62413.81;5073651;28;20208;-76
2021/12/25 11:09:22;;;;;;;13.90;7.60;;;;;;;15.71;100.00;62472.03;5073208;28;20196;-76
2021/12/25 11:12:17;;;;;;;16.93;7.30;;;;;;;16.61;100.00;62570.47;5073339;28;20641;-74
2021/12/25 11:14:46;;;;;;;18.03;8.20;;;;;;;17.34;100.00;62646.59;5073110;28;20281;-77
2021/12/25 11:17:25;;;;;;;15.27;7.23;;;;;;;17.93;100.00;62707.13;5072797;28;20196;-76
2021/12/25 11:19:59;;;;;;;11.13;7.33;;;;;;;18.51;100.00;62777.47;5069186;28;20575;-75
2021/12/25 11:22:47;;;;;;;14.47;7.53;;;;;;;19.41;100.00;62876.19;5073316;28;20200;-77
2021/12/25 11:25:14;;;;;;;13.07;7.10;;;;;;;18.03;100.00;62722.53;5072999;28;20196;-75
2021/12/25 11:27:42;;;;;;;12.40;6.90;;;;;;;19.38;100.00;62867.25;5072621;28;20200;-75
2021/12/25 11:30:13;;;;;;;11.97;7.10;;;;;;;20.15;100.00;62950.47;5072378;28;20265;-74
2021/12/25 11:32:41;;;;;;;35.77;27.67;;;;;;;19.41;100.00;62871.03;5072619;28;20211;-77
2021/12/25 11:35:11;;;;;;;14.47;8.53;;;;;;;20.47;100.00;62985.06;5072027;28;20224;-76
2021/12/25 11:37:40;;;;;;;8.23;6.17;;;;;;;20.89;100.00;63029.97;5072672;28;20197;-75
2021/12/25 11:40:10;;;;;;;14.13;7.17;;;;;;;20.82;100.00;63027.56;5072149;28;20232;-73
2021/12/25 11:42:42;;;;;;;14.13;6.27;;;;;;;19.83;100.00;62915.88;5072540;28;20201;-75
2021/12/25 11:45:15;;;;;;;12.67;5.97;;;;;;;20.70;100.00;63009.97;5072469;28;20204;-75
2021/12/25 11:47:45;;;;;;;12.20;6.13;;;;;;;20.61;100.00;63000.22;5072264;28;20207;-78
2021/12/25 11:50:16;;;;;;;9.37;6.00;;;;;;;21.06;100.00;63053.56;5070927;28;20196;-76
2021/12/25 11:53:03;;;;;;;12.17;6.90;;;;;;;20.00;100.00;62944.59;5072168;28;20640;-77
2021/12/25 11:55:50;;;;;;;14.10;6.57;;;;;;;20.89;100.00;63035.69;5071583;28;20216;-77
2021/12/25 11:58:49;;;;;;;10.73;6.50;;;;;;;20.97;100.00;63041.75;5072029;28;20223;-76
2021/12/25 12:01:21;;;;;;;8.90;6.10;;;;;;;20.62;100.00;63005.94;5071981;28;20207;-76
2021/12/25 12:03:54;;;;;;;11.63;6.33;;;;;;;20.53;100.00;62993.59;5071841;28;20208;-76
2021/12/25 12:06:42;;;;;;;8.73;5.83;;;;;;;20.95;100.00;63039.59;5071917;28;20291;-75
2021/12/25 12:09:13;;;;;;;11.37;6.40;;;;;;;21.08;100.00;63055.19;5074080;28;20226;-75
2021/12/25 12:11:43;;;;;;;11.13;6.40;;;;;;;22.05;100.00;63160.22;5075355;28;20200;-77
2021/12/25 12:14:18;;;;;;;27.10;10.43;;;;;;;19.96;100.00;62935.09;5072143;28;20273;-77
2021/12/25 12:16:48;;;;;;;14.37;6.97;;;;;;;18.70;100.00;62800.03;5072050;28;20261;-74
2021/12/25 12:19:41;;;;;;;13.90;6.33;;;;;;;17.12;100.00;62630.59;5071671;28;20231;-76
2021/12/25 12:28:52;;;;;;;53.33;19.97;;;;;;;14.56;100.00;62353.41;5069107;28;20654;-74
2021/12/25 12:31:37;;;;;;;54.40;21.00;;;;;;;13.82;100.00;62277.47;5071560;28;20315;-74
2021/12/25 12:34:37;;;;;;;19.13;9.27;;;;;;;13.28;100.00;62219.44;5071667;28;20278;-75
2021/12/25 12:37:28;;;;;;;15.87;8.00;;;;;;;13.03;100.00;62192.56;5071467;28;20291;-75
2021/12/25 12:40:32;;;;;;;12.70;7.20;;;;;;;12.82;100.00;62167.47;5071549;28;20232;-75
2021/12/25 12:43:03;;;;;;;16.13;7.87;;;;;;;11.09;100.00;61982.94;5071308;28;20253;-77
2021/12/25 12:45:34;;;;;;;19.43;10.27;;;;;;;12.20;100.00;62104.00;5071875;28;20342;-75
2021/12/25 12:48:20;;;;;;;16.37;9.20;;;;;;;12.21;100.00;62105.09;5071567;28;20200;-75